Hauptseite
METAR-TAF:

METAR-TAF

Flughäfen :

Internationaler König-Abd-al-Aziz-Flughafen

Dschidda, Saudi-Arabien

Breite: 21-42N, Länge: 039-11E, Höhe: 15 m

Beobachtung

Neuester Wetterbericht von vor 6 Minuten, um 23:00 UTC
Windstille
Temperatur 32°C
Luftfeuchtigkeit 63%
Luftdruck 999 hPa
Sichtweite 10 km oder mehr
keine Wolken unter 1500 m und keine Kumulonimbus oder Gewitterwolken

METAR: OEJN 232300Z 00000KT CAVOK 32/24 Q0999 NOSIG

Zeit: 02:06 (23:06 UTC)

Prognose

Neuester Wetterbericht von vor 6 Stunden und 6 Minuten, um 17:00 UTC
Gültige Prognose vom 23 um 18 UTC bis 24 um 24 UTC
Wind 8 kt aus Nord/Nordost
Sichtweite 10 km oder mehr
keine Wolken unter 1500 m und keine Kumulonimbus oder Gewitterwolken
Übergehend zu
vom 24 um 06 UTC bis 24 um 08 UTC
Wind 14 kt aus Nordwest

TAF: OEJN 231700Z 2318/2424 02008KT CAVOK BECMG 2406/2408 32014KT

Wetterbeobachtungen und Prognosen von mehr als 4000 Flughäfen (METAR und TAF Bericht).

Die verfügbaren Stationen werden durch gelbe und rote Markierungen auf der Karte dargestellt.

Führen Sie die Maus auf sie, um den Namen der Station zu sehen.

Darauf klicken, um die Beobachtung von Wetterbeobachtungen und Prognosen zu sehen.

Um die Karte zu ändern : klicken Sie auf den grünen Tasten mit einem schwarzen Kreuz Zum Vergrößern, auf den grünen Button mit einem Gedankenstrich zu verkleinern, oder auf die grünen Pfeile für benachbarte Karten.


METAR-TAF: